WetterOnline ( https://www.wetteronline.de )

Wetter aktuell Regen

Aktuelles Wetter: Zwiesel (613m)

6-stündlich | Neueste Meldungen
Ortszeit Temperatur Wetter
So, 29.05. 14:00 12.9° C bewölkt
So, 29.05. 8:00 7.9° C bedeckt
So, 29.05. 2:00 4.9° C leicht bewölkt
Sa, 28.05. 20:00 12.9° C wolkig
Sa, 28.05. 14:00 12.5° C leicht bewölkt
Sa, 28.05. 8:00 8.6° C leicht bewölkt
Sa, 28.05. 2:00 9.0° C bewölkt
Fr, 27.05. 20:00 14.8° C bewölkt
Ortszeit Temperatur Wetter
So, 29.05. 14:30 11.9° C leicht bewölkt
So, 29.05. 14:20 11.9° C leicht bewölkt
So, 29.05. 14:10 12.1° C leicht bewölkt
So, 29.05. 14:00 12.9° C bewölkt
So, 29.05. 13:50 12.9° C bewölkt
So, 29.05. 13:40 12.7° C bedeckt
So, 29.05. 13:30 12.0° C bedeckt
So, 29.05. 13:00 10.9° C wolkig
So, 29.05. 12:30 9.6° C wolkig
So, 29.05. 12:00 8.6° C fast wolkenlos
So, 29.05. 11:30 9.1° C bewölkt
Ortszeit Relative Feuchte Sichtweite
So, 29.05. 14:00 45% >70 km
So, 29.05. 8:00 71% 60 km
So, 29.05. 2:00 75% 60 km
Sa, 28.05. 20:00 44% 60 km
Sa, 28.05. 14:00 49% >70 km
Sa, 28.05. 8:00 71% >70 km
Sa, 28.05. 2:00 94% 35 km
Fr, 27.05. 20:00 66% >70 km
Ortszeit Relative Feuchte Sichtweite
So, 29.05. 14:30 53% >70 km
So, 29.05. 14:20 53% -
So, 29.05. 14:10 54% -
So, 29.05. 14:00 45% >70 km
So, 29.05. 13:50 45% -
So, 29.05. 13:40 49% -
So, 29.05. 13:30 50% >70 km
So, 29.05. 13:00 59% >70 km
So, 29.05. 12:30 60% 60 km
So, 29.05. 12:00 64% 50 km
So, 29.05. 11:30 61% 60 km
Ortszeit Niederschlagsmenge Niederschlagsart
So, 29.05. 14:00 0.1 l/m2 in 6 Std. Regen
So, 29.05. 8:00 0.0 l/m2 in 12 Std. -
So, 29.05. 2:00 0.0 l/m2 in 6 Std. -
Sa, 28.05. 20:00 0.1 l/m2 in 12 Std. Regen
Sa, 28.05. 14:00 0.0 l/m2 in 6 Std. -
Sa, 28.05. 8:00 0.7 l/m2 in 12 Std. Regen
Sa, 28.05. 2:00 0.7 l/m2 in 6 Std. Regen
Fr, 27.05. 20:00 0.1 l/m2 in 12 Std. Regen
Ortszeit Niederschlagsmenge Niederschlagsart
So, 29.05. 14:30 0.0 l/m2 in 1 Std. -
So, 29.05. 14:20 keine Meldung -
So, 29.05. 14:10 keine Meldung -
So, 29.05. 14:00 0.0 l/m2 in 1 Std. Regen
So, 29.05. 13:50 keine Meldung -
So, 29.05. 13:40 keine Meldung -
So, 29.05. 13:30 0.0 l/m2 in 1 Std. -
So, 29.05. 13:00 0.0 l/m2 in 1 Std. -
So, 29.05. 12:30 0.0 l/m2 in 1 Std. -
So, 29.05. 12:00 0.0 l/m2 in 1 Std. -
So, 29.05. 11:30 0.0 l/m2 in 1 Std. -
Ortszeit Stärke Spitze Richtung
km/h Bft. km/h Grad Sektor
So, 29.05. 14:00 4 1 47 300° NW
So, 29.05. 8:00 4 1 14 280° W
So, 29.05. 2:00 7 2 14 50° NO
Sa, 28.05. 20:00 6 1 37 320° NW
Sa, 28.05. 14:00 25 4 50 270° W
Sa, 28.05. 8:00 11 2 18 260° W
Sa, 28.05. 2:00 4 1 47 150° SO
Fr, 27.05. 20:00 19 3 37 280° W
Ortszeit Stärke Spitze Richtung
km/h Bft. km/h Grad Sektor
So, 29.05. 14:30 14 3 25 110° O
So, 29.05. 14:20 14 3 - 110° O
So, 29.05. 14:10 15 3 - 110° O
So, 29.05. 14:00 4 1 22 300° NW
So, 29.05. 13:50 4 1 - 300° NW
So, 29.05. 13:40 6 1 - 320° NW
So, 29.05. 13:30 11 2 22 320° NW
So, 29.05. 13:00 17 3 44 330° NW
So, 29.05. 12:30 19 3 44 340° N
So, 29.05. 12:00 22 4 36 350° N
So, 29.05. 11:30 9 2 20 90° O
Ortszeit Untergrenze Bedeckung Gattung
total tief tief mittel hoch
So, 29.05. 14:00 2400 m 7/8 7/8 - - -
So, 29.05. 8:00 1800 m 8/8 8/8 - - -
So, 29.05. 2:00 2100 m 4/8 4/8 - - -
Sa, 28.05. 20:00 2700 m 5/8 5/8 - - -
Sa, 28.05. 14:00 1800 m 3/8 3/8 - - -
Sa, 28.05. 8:00 990 m 4/8 3/8 - - -
Sa, 28.05. 2:00 180 m 7/8 7/8 - - -
Fr, 27.05. 20:00 990 m 7/8 7/8 - - -
Ortszeit Bedeckungsgrad in Achtel und Wolkenuntergrenze
So, 29.05. 14:30 1(1800m)
So, 29.05. 14:20 1(1800m) 2(2700m)
So, 29.05. 14:10 3
So, 29.05. 14:00 7(2400m) 7(2700m)
So, 29.05. 13:50 7(2400m) 7(2700m)
So, 29.05. 13:40 8
So, 29.05. 13:30 8(2400m) 8(3300m)
So, 29.05. 13:00 4(2400m) 4(3000m) 6(3900m)
So, 29.05. 12:30 6(2400m)
So, 29.05. 12:00 1(1800m)
So, 29.05. 11:30 5(1800m) 7(2100m) 7(2700m)
Ortszeit Luftdruck NN (hPa) Tendenz (hPa in 3 Std.)
So, 29.05. 14:00 1010 - 1,3
So, 29.05. 8:00 1013 - 0,8
So, 29.05. 2:00 1017 - 1,2
Sa, 28.05. 20:00 1016 - 0,6
Sa, 28.05. 14:00 1018 - 0,5
Sa, 28.05. 8:00 1020 + 1,0
Sa, 28.05. 2:00 1019 - 0,7
Fr, 27.05. 20:00 1017 - 0,3
Ortszeit Luftdruck NN (hPa) Tendenz (hPa in 3 Std.)
So, 29.05. 14:30 1010 - 1,8
So, 29.05. 14:20 1010 keine Meldung
So, 29.05. 14:10 1011 keine Meldung
So, 29.05. 14:00 1010 - 1,3
So, 29.05. 13:50 1010 keine Meldung
So, 29.05. 13:40 1011 keine Meldung
So, 29.05. 13:30 1011 - 1,0
So, 29.05. 13:00 1012 - 0,9
So, 29.05. 12:30 1012 - 0,5
So, 29.05. 12:00 1013 - 0,1
So, 29.05. 11:30 1013 + 0,6
Ortszeit Schneehöhe (cm)
So, 29.05. 14:00 0
So, 29.05. 8:00 0
So, 29.05. 2:00 0
Sa, 28.05. 20:00 0
Sa, 28.05. 14:00 0
Sa, 28.05. 8:00 0
Sa, 28.05. 2:00 0
Fr, 27.05. 20:00 0
Ortszeit Schneehöhe (cm)
So, 29.05. 14:30 0
So, 29.05. 14:20 0
So, 29.05. 14:10 0
So, 29.05. 14:00 0
So, 29.05. 13:50 0
So, 29.05. 13:40 0
So, 29.05. 13:30 0
So, 29.05. 13:00 0
So, 29.05. 12:30 0
So, 29.05. 12:00 0
So, 29.05. 11:30 0
Link zu dieser Seite / Seite empfehlen

Das Wetter in ...